Fairmont, WV

6:33 AM EST on February 25, 2017 (GMT -0500)
East Fairmont | | Change Station

Elev 1004 ft 39.48 °N, 80.13 °W | Updated 14 minutes ago

Rain
Rain
58.9 °F
Feels Like 58.9 °F
N
2.0
Wind Variable Wind from SW
Gusts 7.0 mph

Today
High -- | Low -- °F
--% Chance of Precip.
Yesterday
High -- | Low -- °F
Precip. -- in
Pressure 29.56 in
Visibility 5.0 miles
Clouds Mostly Cloudy 4500 ft
Overcast 5000 ft
Dew Point 54 °F
Humidity 84%
Rainfall 0.03 in
Snow Depth Not available.
6:58 AM 6:08 PM
Waning Crescent, 2% visible
METAR KCKB 251053Z AUTO 22006KT 5SM RA BKN045 OVC050 14/12 A2959 RMK AO2 RAE0958B45 SLP009 P0002 T01440117
Pressure 29.56 in
Visibility 5.0 miles
Clouds Mostly Cloudy 4500 ft
Overcast 5000 ft
Dew Point 54 °F
Humidity 84%
Rainfall 0.03 in
Snow Depth Not available.
6:58 AM 6:08 PM
Waning Crescent, 2% visible
METAR KCKB 251053Z AUTO 22006KT 5SM RA BKN045 OVC050 14/12 A2959 RMK AO2 RAE0958B45 SLP009 P0002 T01440117

Get Your Daily Forecast Email!

Thanks for signing up!

Be on the lookout for a verification email in your inbox.

You'll start receiving the daily forecast at 8 AM.

×

10-Day Weather Forecast

Almanac

Astronomy

Feb. 25, 2017 Rise Set
Actual Time
Civil Twilight
Nautical Twilight
Astronomical Twilight
Moon
Length of Visible Light
Length of Day
Tomorrow will be .
, % of the Moon is Illuminated

Today's Extremes

State Highs State Lows

Community

WunderPhotos

Upload Photos

1,962,540 photos uploaded!

WunderBlog® & News

Nearby

Air Quality

  Air Quality AQ Index Pollutant
Not available.

Snow Depth

Station Depth Elevation

Earthquake Activity

City Distance Mag. Time & Date
Minimum magnitude displayed is 2.5.

Coastal Water Temperatures

Place Temperature

Stations

Nearby Weather Stations

Station Location Temp. Windchill Dew Point Humidity Wind Precip. Elev Updated Type
                   

Watches & Warnings

There are currently no watches in effect.